Nearby METAR Reports

 

KMTN - Baltimore/Martin, Maryland, USA
Distance from station: SSE 8mi, 13km
Updated: Fri, 19-Sep-2014 8:45am EDT
Few Clouds
Few Clouds
 Wind from NNE
Wind: NNE 6 mph , 9 km/h
Temperature: 61°F , 16°C
Dew Point: 54°F , 12°C
Humidity: 77%
Barometer: 30.28 inHg , 1025.4 hPa
Clouds: Few Clouds
Visibility: 10 miles , 16 km
Cloud details: Few Clouds 20000 ft
2014/09/19 12:45 KMTN 191245Z 03005KT 10SM FEW200 16/12 A3028
KDMH - Baltimore/Dwntwn, Maryland, USA
Distance from station: SW 12mi, 19km
Updated: Fri, 19-Sep-2014 8:54am EDT

 
Temperature: 63°F , 17°C
Dew Point: 48°F , 9°C
Humidity: 59%
Barometer: 30.27 inHg , 1025.1 hPa
2014/09/19 12:54 KDMH 191254Z AUTO 17/09 A3027 RMK AO1 SLP250 T01670094
 
KBWI - Balto/Wash Intl, Maryland, USA
Distance from station: SSW 20mi, 33km
Updated: Fri, 19-Sep-2014 8:54am EDT
Partly cloudy
Partly cloudy
 Wind from NE
Wind: NE 12 mph , 19 km/h
Temperature: 61°F , 16°C
Dew Point: 50°F , 10°C
Humidity: 68%
Barometer: 30.25 inHg , 1024.4 hPa
Clouds: Partly cloudy
Visibility: 10 miles , 16 km
Cloud details: Few Clouds 5000 ft
Partly cloudy 9500 ft
Partly cloudy 14000 ft
Partly cloudy 25000 ft
2014/09/19 12:54 KBWI 191254Z 04010KT 10SM FEW050 SCT095 SCT140 SCT250 16/10 A3025 RMK AO2 SLP244 T01610100
KDMW - Carroll Cnty, Maryland, USA
Distance from station: WNW 30mi, 48km
Updated: Fri, 19-Sep-2014 9:40am EDT
Clear
Clear
 Wind from ENE
Wind: ENE 8 mph , 13 km/h
Temperature: 59°F , 15°C
Dew Point: 52°F , 11°C
Humidity: 77%
Barometer: 30.27 inHg , 1025.1 hPa
Clouds: Clear
Visibility: 10 miles , 16 km
2014/09/19 13:40 KDMW 191340Z AUTO 07007KT 10SM CLR 15/11 A3027 RMK AO2
 
KNAK - Annapolis/Naval, Maryland, USA
Distance from station: S 30mi, 48km
Updated: Fri, 19-Sep-2014 8:54am EDT
Few Clouds
Few Clouds
 Wind from NE
Wind: NE 8 mph , 13 km/h
Temperature: 63°F , 17°C
Dew Point: 54°F , 12°C
Humidity: 73%
Barometer: 30.25 inHg , 1024.4 hPa
Clouds: Few Clouds
Visibility: 10 miles , 16 km
Cloud details: Few Clouds 10000 ft
2014/09/19 12:54 KNAK 191254Z AUTO 04007KT 10SM FEW100 17/12 A3025 RMK AO2 SLP246 T01720117
KW29 - Stevensville, Maryland, USA
Distance from station: SSE 31mi, 50km
Updated: Fri, 19-Sep-2014 9:39am EDT

 Wind from NE
Wind: NE 7 mph , 11 km/h
Temperature: 63°F , 17°C
Dew Point: 54°F , 12°C
Humidity: 73%
Barometer: 30.26 inHg , 1024.7 hPa
Visibility: 10 miles , 16 km
2014/09/19 13:39 KW29 191339Z AUTO 04006KT 10SM 17/12 A3026 RMK AO1
 
KCGS - College Park, Maryland, USA
Distance from station: SW 38mi, 61km
Updated: Fri, 19-Sep-2014 9:35am EDT
Overcast
Overcast
 Wind from ENE
Wind: ENE 5 mph , 7 km/h
Temperature: 63°F , 17°C
Dew Point: 54°F , 12°C
Humidity: 73%
Barometer: 30.26 inHg , 1024.7 hPa
Clouds: Overcast
Visibility: 10 miles , 16 km
Cloud details: Overcast 9500 ft
2014/09/19 13:35 KCGS 191335Z AUTO 07004KT 10SM OVC095 17/12 A3026 RMK AO1
KGAI - Gaithersburg, Maryland, USA
Distance from station: WSW 40mi, 65km
Updated: Fri, 19-Sep-2014 9:35am EDT
Mostly cloudy
Mostly cloudy
 Wind from ENE
Wind: ENE 3 mph , 6 km/h
Temperature: 59°F , 15°C
Dew Point: 52°F , 11°C
Humidity: 77%
Barometer: 30.30 inHg , 1026.1 hPa
Clouds: Mostly cloudy
Visibility: 10 miles , 16 km
Cloud details: Mostly cloudy 8000 ft
Mostly cloudy 9000 ft
2014/09/19 13:35 KGAI 191335Z AUTO 06003KT 10SM BKN080 BKN090 15/11 A3030 RMK AO1
 
KTHV - York, Pennsylvania, USA
Distance from station: NNW 40mi, 65km
Updated: Fri, 19-Sep-2014 8:53am EDT
Clear
Clear
 Wind from NE
Wind: NE 3 mph , 6 km/h
Temperature: 57°F , 14°C
Dew Point: 50°F , 10°C
Humidity: 77%
Barometer: 30.29 inHg , 1025.7 hPa
Clouds: Clear
Visibility: 10 miles , 16 km
2014/09/19 12:53 KTHV 191253Z AUTO 05003KT 10SM CLR 14/10 A3029 RMK AO2 SLP258 T01390100
KFDK - Frederick, Maryland, USA
Distance from station: W 47mi, 75km
Updated: Fri, 19-Sep-2014 8:45am EDT
Partly cloudy
Partly cloudy
 Wind from NNE
Wind: NNE 8 mph , 13 km/h
Temperature: 59°F , 15°C
Dew Point: 54°F , 12°C
Humidity: 82%
Barometer: 30.30 inHg , 1026.1 hPa
Clouds: Partly cloudy
Visibility: 10 miles , 16 km
Cloud details: Partly cloudy 9000 ft
2014/09/19 12:45 KFDK 191245Z 03007KT 10SM SCT090 15/12 A3030
 
KESN - Easton/Newnam, Maryland, USA
Distance from station: SSE 48mi, 78km
Updated: Fri, 19-Sep-2014 8:50am EDT
Partly cloudy
Partly cloudy
 Wind from NE
Wind: NE 7 mph , 11 km/h
Temperature: 61°F , 16°C
Dew Point: 59°F , 15°C
Humidity: 94%
Barometer: 30.27 inHg , 1025.1 hPa
Clouds: Partly cloudy
Visibility: 10 miles , 16 km
Cloud details: Partly cloudy 9000 ft
2014/09/19 12:50 KESN 191250Z 05006KT 10SM SCT090 16/15 A3027
KDCA - Washington/Natl, Washington D.c., USA
Distance from station: SW 49mi, 79km
Updated: Fri, 19-Sep-2014 8:52am EDT
Mostly cloudy
Mostly cloudy
 Wind from NE
Wind: NE 10 mph , 17 km/h
Temperature: 63°F , 17°C
Dew Point: 52°F , 11°C
Humidity: 68%
Barometer: 30.26 inHg , 1024.7 hPa
Clouds: Mostly cloudy
Visibility: 10 miles , 16 km
Cloud details: Few Clouds 6500 ft
Mostly cloudy 8500 ft
2014/09/19 12:52 KDCA 191252Z 04009KT 10SM FEW065 BKN085 17/11 A3026 RMK AO2 SLP245 T01720111
 
KLNS - Lancaster, Pennsylvania, USA
Distance from station: N 49mi, 79km
Updated: Fri, 19-Sep-2014 8:53am EDT
Clear
Clear
 Wind from NE
Wind: NE 10 mph , 17 km/h
Temperature: 55°F , 13°C
Dew Point: 48°F , 9°C
Humidity: 77%
Barometer: 30.29 inHg , 1025.7 hPa
Clouds: Clear
Visibility: 9 miles , 14 km
2014/09/19 12:53 KLNS 191253Z 05009KT 9SM CLR 13/09 A3029 RMK AO2 SLP256 T01330089
KILG - Wilmington, Delaware, USA
Distance from station: ENE 50mi, 81km
Updated: Fri, 19-Sep-2014 8:51am EDT
Clear
Clear
 Wind from NNE
Wind: NNE 12 mph , 19 km/h
Temperature: 61°F , 16°C
Dew Point: 52°F , 11°C
Humidity: 72%
Barometer: 30.28 inHg , 1025.4 hPa
Clouds: Clear
Visibility: 10 miles , 16 km
2014/09/19 12:51 KILG 191251Z 03010KT 10SM CLR 16/11 A3028 RMK AO2 SLP252 T01560106